Flight Track Log - Related Links

Times and Time Zones

All times are in EDT time to prevent confusion due to time zone crossing. See the CSN6664 flight status page for this flight to view local times or setup timezone preferences in your user account.

Time Position Orientation Groundspeed Altitude Reporting Facility
EDT Latitude Longitude Course Direction KTS MPH feet Rate Location/Type
Sun 02:58:00 AM 41.4799 119.0317 81° East  Level Estimated
Sun 02:59:00 AM 41.4896 119.2091 86° East  Level Estimated
Sun 03:00:00 AM 41.4990 119.3864 86° East  Level Estimated
Sun 03:01:00 AM 41.5081 119.5639 86° East  Level Estimated
Sun 03:02:00 AM 41.5170 119.7413 86° East  Level Estimated
Sun 03:03:00 AM 41.5256 119.9188 86° East  Level Estimated
Sun 03:04:00 AM 41.5339 120.0964 86° East  Level Estimated
Sun 03:05:00 AM 41.5419 120.2740 86° East  Level Estimated
Sun 03:06:00 AM 41.5497 120.4517 87° East  Level Estimated
Sun 03:07:00 AM 41.5572 120.6293 87° East  Level Estimated
Sun 03:08:00 AM 41.5644 120.8071 87° East  Level Estimated
Sun 03:09:00 AM 41.5713 120.9848 87° East  Level Estimated
Sun 03:10:00 AM 41.5780 121.1627 87° East  Level Estimated
Sun 03:11:00 AM 41.5844 121.3405 87° East  Level Estimated
Sun 03:12:00 AM 41.5905 121.5184 87° East  Level Estimated
Sun 03:13:00 AM 41.5964 121.6963 87° East  Level Estimated
Sun 03:14:00 AM 41.6019 121.8743 88° East  Level Estimated
Sun 03:15:00 AM 41.6072 122.0522 88° East  Level Estimated
Sun 03:16:00 AM 41.6123 122.2302 88° East  Level Estimated
Sun 03:17:00 AM 41.6170 122.4083 88° East  Level Estimated
Sun 03:18:00 AM 41.6215 122.5863 88° East  Level Estimated
Sun 03:19:00 AM 41.6257 122.7644 88° East  Level Estimated
Sun 03:20:00 AM 41.6296 122.9425 88° East  Level Estimated
Sun 03:21:00 AM 41.6333 123.1206 88° East  Level Estimated
Sun 03:22:00 AM 41.6366 123.2988 88° East  Level Estimated
Sun 03:23:00 AM 41.6397 123.4769 89° East  Level Estimated
Sun 03:24:00 AM 41.6398 123.4834 89° East  Level Estimated
Sun 03:25:00 AM 41.6398 123.4834 298° West  Level Estimated
Sun 03:26:00 AM 41.6398 123.4834 298° West  Level Estimated
Sun 03:27:00 AM 41.6398 123.4834 298° West  Level Estimated
Sun 03:28:00 AM 41.6398 123.4834 298° West  Level Estimated
Sun 03:29:00 AM 41.6398 123.4834 298° West  Level Estimated
Sun 03:30:00 AM 41.6398 123.4834 298° West  Level Estimated
Sun 03:31:00 AM 41.6398 123.4834 298° West  Level Estimated
Sun 03:32:00 AM 41.6398 123.4834 298° West  Level Estimated
Sun 03:33:00 AM 41.6398 123.4834 298° West  Level Estimated
Sun 03:34:00 AM 41.6398 123.4834 298° West  Level Estimated
Sun 03:35:00 AM 41.6398 123.4834 298° West  Level Estimated
Sun 03:36:00 AM 41.6398 123.4834 298° West  Level Estimated
Sun 03:37:00 AM 41.6398 123.4834 298° West  Level Estimated
Sun 03:38:00 AM 41.6398 123.4834 298° West  Level Estimated
Sun 03:39:00 AM 41.6398 123.4834 298° West  Level Estimated
Sun 03:40:00 AM 41.6398 123.4834 298° West  Level Estimated
Sun 03:41:00 AM 41.6398 123.4834 298° West  Level Estimated
Sun 03:42:00 AM 41.6398 123.4834 298° West  Level Estimated

Login

Don't have an account? Register now (free) for customized features, flight alerts, and more!